Time;durP1;ratioP1;P1;durP2;ratioP2;P2;SDS_P1;SDS_P2;PMS_P1;PMS_P2;Temp;Humidity;BMP_temperature;BMP_pressure;BME280_temperature;BME280_humidity;BME280_pressure;Samples;Min_cycle;Max_cycle;Signal;HPM_P1;HPM_P2
2022/01/23 00:01:46;;;;;;;6.70;3.30;;;5.60;99.90;;;;;;5054820;28;20593;-80
2022/01/23 00:04:12;;;;;;;9.87;4.07;;;5.60;99.90;;;;;;5054910;28;20178;-79
2022/01/23 00:06:37;;;;;;;7.03;3.77;;;5.60;99.90;;;;;;5055109;28;20192;-80
2022/01/23 00:09:03;;;;;;;7.47;3.47;;;5.60;99.90;;;;;;5055056;28;20579;-79
2022/01/23 00:11:31;;;;;;;8.87;3.40;;;5.60;99.90;;;;;;5055751;28;20650;-80
2022/01/23 00:19:08;;;;;;;9.20;3.50;;;5.60;99.90;;;;;;5057246;28;20177;-80
2022/01/23 00:21:36;;;;;;;6.93;3.07;;;5.60;99.90;;;;;;5054224;28;20177;-80
2022/01/23 00:31:56;;;;;;;6.70;3.80;;;5.60;99.90;;;;;;5054787;28;20256;-80
2022/01/23 00:34:22;;;;;;;5.30;3.60;;;5.60;99.90;;;;;;5053913;28;20635;-80
2022/01/23 00:36:47;;;;;;;7.53;3.67;;;5.50;99.90;;;;;;5051527;28;20236;-80
2022/01/23 00:39:13;;;;;;;8.67;3.47;;;5.50;99.90;;;;;;5051079;28;20210;-80
2022/01/23 00:41:38;;;;;;;5.13;3.80;;;5.50;99.90;;;;;;5053321;28;20688;-80
2022/01/23 00:44:04;;;;;;;4.63;3.40;;;5.60;99.90;;;;;;5052733;28;20272;-79
2022/01/23 00:46:32;;;;;;;6.23;3.57;;;5.50;99.90;;;;;;5052239;28;20607;-80
2022/01/23 00:51:28;;;;;;;9.87;3.37;;;5.50;99.90;;;;;;5053386;28;20171;-80
2022/01/23 00:53:55;;;;;;;4.57;3.80;;;5.50;99.90;;;;;;5051105;28;20212;-80
2022/01/23 00:56:21;;;;;;;6.83;3.77;;;5.50;99.90;;;;;;5051129;28;20237;-80
2022/01/23 00:58:47;;;;;;;3.67;3.30;;;5.50;99.90;;;;;;5051405;28;20185;-80
2022/01/23 01:01:14;;;;;;;5.37;2.93;;;5.50;99.90;;;;;;5050942;28;20184;-80
2022/01/23 01:03:39;;;;;;;4.83;3.10;;;5.50;99.90;;;;;;5052716;28;20180;-79
2022/01/23 01:06:05;;;;;;;8.10;3.13;;;5.50;99.90;;;;;;5052601;28;20202;-79
2022/01/23 01:08:31;;;;;;;6.40;3.03;;;5.50;99.90;;;;;;5053693;28;20198;-80
2022/01/23 01:11:22;;;;;;;4.63;3.30;;;5.40;99.90;;;;;;5053087;28;20658;-79
2022/01/23 01:30:25;;;;;;;4.03;2.77;;;5.50;99.90;;;;;;5055819;28;20225;-80
2022/01/23 01:38:00;;;;;;;3.53;3.10;;;5.40;99.90;;;;;;5059774;28;20176;-79
2022/01/23 01:40:30;;;;;;;6.93;3.00;;;5.40;99.90;;;;;;5057506;28;20175;-80
2022/01/23 01:42:56;;;;;;;9.03;3.50;;;5.40;99.90;;;;;;5058631;28;20172;-79
2022/01/23 01:45:29;;;;;;;4.13;3.20;;;5.40;99.90;;;;;;5059094;28;20198;-80
2022/01/23 01:47:59;;;;;;;5.23;3.63;;;5.30;99.90;;;;;;5058752;28;20252;-80
2022/01/23 01:50:25;;;;;;;6.20;3.47;;;5.40;99.90;;;;;;5059512;28;20586;-79
2022/01/23 01:52:51;;;;;;;6.53;3.73;;;5.40;99.90;;;;;;5059239;28;20165;-79
2022/01/23 01:55:24;;;;;;;7.70;3.53;;;5.40;99.90;;;;;;5056297;28;20198;-77
2022/01/23 01:57:54;;;;;;;5.50;3.57;;;5.40;99.90;;;;;;5053978;28;20176;-77
2022/01/23 02:03:23;;;;;;;4.63;3.57;;;5.30;99.90;;;;;;5055175;28;20230;-77
2022/01/23 02:08:33;;;;;;;6.73;3.90;;;5.30;99.90;;;;;;5054952;28;20224;-77
2022/01/23 02:11:31;;;;;;;3.80;3.30;;;5.30;99.90;;;;;;5054146;28;20549;-78
2022/01/23 02:14:09;;;;;;;6.63;4.07;;;5.30;99.90;;;;;;5059821;28;20204;-79
2022/01/23 02:16:58;;;;;;;5.93;3.90;;;5.30;99.90;;;;;;5060919;28;20277;-79
2022/01/23 02:52:35;;;;;;;6.90;4.30;;;5.40;99.90;;;;;;5054630;28;20264;-79
2022/01/23 02:55:09;;;;;;;4.90;3.90;;;5.30;99.90;;;;;;5053565;28;20192;-77
2022/01/23 02:57:50;;;;;;;6.00;4.10;;;5.40;99.90;;;;;;5053818;28;20188;-77
2022/01/23 03:00:19;;;;;;;7.20;4.30;;;5.40;99.90;;;;;;5052498;28;20189;-78
2022/01/23 03:02:48;;;;;;;5.80;3.93;;;5.30;99.90;;;;;;5052326;28;20721;-79
2022/01/23 03:05:23;;;;;;;5.87;4.33;;;5.30;99.90;;;;;;5052566;28;20204;-78
2022/01/23 03:08:04;;;;;;;8.07;4.10;;;5.40;99.90;;;;;;5052582;28;20645;-79
2022/01/23 03:10:44;;;;;;;9.43;4.33;;;5.40;99.90;;;;;;5053685;28;20175;-79
2022/01/23 03:26:39;;;;;;;9.00;4.70;;;5.40;99.90;;;;;;5054111;28;20246;-80
2022/01/23 03:29:21;;;;;;;7.03;4.77;;;5.40;99.90;;;;;;5055469;28;20744;-80
2022/01/23 03:32:01;;;;;;;6.50;4.73;;;5.40;99.90;;;;;;5056715;28;20174;-80
2022/01/23 03:34:28;;;;;;;9.10;4.40;;;5.30;99.90;;;;;;5056365;28;20645;-80
2022/01/23 03:36:55;;;;;;;9.57;4.80;;;5.40;99.90;;;;;;5056899;28;20268;-80
2022/01/23 03:39:21;;;;;;;7.13;4.70;;;5.40;99.90;;;;;;5056089;28;20272;-80
2022/01/23 03:41:46;;;;;;;9.17;4.40;;;5.40;99.90;;;;;;5055950;28;20204;-80
2022/01/23 03:44:16;;;;;;;8.10;4.57;;;5.40;99.90;;;;;;5056588;28;20189;-80
2022/01/23 03:51:55;;;;;;;6.50;4.70;;;5.40;99.90;;;;;;5057583;28;20191;-80
2022/01/23 03:54:23;;;;;;;7.47;4.23;;;5.40;99.90;;;;;;5055932;28;20165;-80
2022/01/23 03:56:49;;;;;;;8.13;4.70;;;5.40;99.90;;;;;;5055914;28;20194;-80
2022/01/23 03:59:14;;;;;;;10.03;5.00;;;5.40;99.90;;;;;;5055568;28;20203;-80
2022/01/23 04:01:40;;;;;;;5.63;4.53;;;5.40;99.90;;;;;;5055881;28;20176;-80
2022/01/23 04:04:17;;;;;;;10.80;5.37;;;5.40;99.90;;;;;;5055524;28;20299;-80
2022/01/23 04:06:43;;;;;;;13.20;5.10;;;5.40;99.90;;;;;;5055502;28;20892;-80
2022/01/23 04:09:09;;;;;;;8.07;4.90;;;5.40;99.90;;;;;;5055636;28;20239;-80
2022/01/23 04:11:34;;;;;;;8.70;5.00;;;5.40;99.90;;;;;;5057682;28;20177;-80
2022/01/23 04:14:07;;;;;;;10.37;5.33;;;5.40;99.90;;;;;;5056103;28;20627;-80
2022/01/23 04:33:12;;;;;;;13.40;5.87;;;5.30;99.90;;;;;;5052727;28;20182;-79
2022/01/23 04:45:06;;;;;;;9.27;5.27;;;5.40;99.90;;;;;;5052314;28;20242;-80
2022/01/23 04:47:05;;;;;;;11.87;5.97;;;5.40;99.90;;;;;;5053148;28;20214;-80
2022/01/23 05:00:14;;;;;;;12.27;6.30;;;5.30;99.90;;;;;;5057433;28;20205;-80
2022/01/23 05:05:07;;;;;;;12.30;6.60;;;5.30;99.90;;;;;;5057093;28;20270;-79
2022/01/23 05:07:32;;;;;;;14.47;7.20;;;5.30;99.90;;;;;;5054827;28;20188;-79
2022/01/23 05:09:58;;;;;;;13.67;6.73;;;5.30;99.90;;;;;;5059792;28;20262;-80
2022/01/23 05:12:28;;;;;;;12.60;7.47;;;5.30;99.90;;;;;;5059580;28;20170;-80
2022/01/23 05:14:54;;;;;;;14.37;7.53;;;5.30;99.90;;;;;;5059518;28;20591;-80
2022/01/23 05:17:20;;;;;;;14.37;6.97;;;5.30;99.90;;;;;;5059450;28;20177;-80
2022/01/23 05:19:45;;;;;;;15.50;7.60;;;5.30;99.90;;;;;;5059026;28;20176;-80
2022/01/23 05:24:54;;;;;;;15.43;7.23;;;5.30;99.90;;;;;;5060737;28;20170;-80
2022/01/23 05:27:23;;;;;;;12.70;7.23;;;5.30;99.90;;;;;;5059600;28;20179;-80
2022/01/23 05:29:50;;;;;;;14.53;7.30;;;5.30;99.90;;;;;;5059855;28;20208;-80
2022/01/23 05:32:16;;;;;;;14.27;7.03;;;5.30;99.90;;;;;;5059889;28;20180;-79
2022/01/23 05:34:44;;;;;;;12.67;6.97;;;5.30;99.90;;;;;;5059669;28;20576;-80
2022/01/23 05:37:09;;;;;;;14.07;6.83;;;5.30;99.90;;;;;;5058684;28;20563;-80
2022/01/23 05:39:35;;;;;;;13.77;6.93;;;5.20;99.90;;;;;;5059107;28;20234;-79
2022/01/23 05:42:09;;;;;;;13.90;6.93;;;5.20;99.90;;;;;;5058941;28;20181;-80
2022/01/23 05:44:40;;;;;;;12.10;7.03;;;5.20;99.90;;;;;;5059323;28;20185;-80
2022/01/23 05:47:07;;;;;;;15.53;7.10;;;5.20;99.90;;;;;;5059260;28;20180;-80
2022/01/23 05:49:33;;;;;;;14.03;7.17;;;5.20;99.90;;;;;;5059035;28;20211;-79
2022/01/23 05:51:59;;;;;;;13.23;6.83;;;5.20;99.90;;;;;;5058778;28;20175;-79
2022/01/23 05:54:25;;;;;;;12.37;7.33;;;5.20;99.90;;;;;;5058966;28;20200;-80
2022/01/23 05:56:51;;;;;;;11.07;7.43;;;5.10;99.90;;;;;;5058235;28;20732;-80
2022/01/23 05:59:16;;;;;;;15.10;7.23;;;5.10;99.90;;;;;;5055090;28;20192;-80
2022/01/23 06:01:43;;;;;;;14.07;7.43;;;5.10;99.90;;;;;;5054434;28;20223;-80
2022/01/23 06:04:09;;;;;;;14.20;7.17;;;5.10;99.90;;;;;;5054293;28;20239;-79
2022/01/23 06:06:35;;;;;;;10.87;6.97;;;5.10;99.90;;;;;;5054382;28;20200;-80
2022/01/23 06:09:00;;;;;;;15.03;7.63;;;5.10;99.90;;;;;;5055032;28;20258;-80
2022/01/23 06:11:26;;;;;;;11.03;6.77;;;5.10;99.90;;;;;;5054749;28;20630;-80
2022/01/23 06:13:52;;;;;;;12.33;7.30;;;5.00;99.90;;;;;;5054672;28;20180;-80
2022/01/23 06:16:18;;;;;;;14.47;7.27;;;5.00;99.90;;;;;;5053879;28;20197;-80
2022/01/23 06:18:45;;;;;;;14.70;7.70;;;5.00;99.90;;;;;;5055819;28;20180;-80
2022/01/23 06:21:13;;;;;;;15.43;7.57;;;5.00;99.90;;;;;;5058021;28;20179;-80
2022/01/23 06:23:39;;;;;;;17.63;7.93;;;5.00;99.90;;;;;;5058745;28;20271;-80
2022/01/23 06:26:05;;;;;;;14.27;7.80;;;5.00;99.90;;;;;;5056496;28;20290;-80
2022/01/23 06:28:43;;;;;;;17.60;7.90;;;5.00;99.90;;;;;;5057628;28;20208;-79
2022/01/23 06:31:09;;;;;;;13.53;7.77;;;5.00;99.90;;;;;;5058094;28;20252;-79
2022/01/23 06:33:36;;;;;;;18.33;8.83;;;5.00;99.90;;;;;;5057654;28;20178;-79
2022/01/23 06:36:02;;;;;;;18.67;8.03;;;5.00;99.90;;;;;;5057577;28;20567;-80
2022/01/23 06:38:29;;;;;;;12.20;8.10;;;5.00;99.90;;;;;;5057310;28;20190;-80
2022/01/23 06:40:54;;;;;;;12.57;7.63;;;5.00;99.90;;;;;;5057477;28;20334;-80
2022/01/23 06:43:20;;;;;;;13.00;7.57;;;5.00;99.90;;;;;;5057641;28;20696;-80
2022/01/23 06:45:46;;;;;;;16.93;7.70;;;5.00;99.90;;;;;;5059459;28;20276;-80
2022/01/23 06:48:11;;;;;;;14.67;8.00;;;5.10;99.90;;;;;;5057295;28;20192;-79
2022/01/23 06:50:37;;;;;;;14.70;7.83;;;5.00;99.90;;;;;;5058310;28;20184;-80
2022/01/23 06:53:02;;;;;;;16.67;8.17;;;5.00;99.90;;;;;;5057245;28;20249;-79
2022/01/23 06:55:29;;;;;;;13.83;8.30;;;5.00;99.90;;;;;;5057498;28;20190;-80
2022/01/23 06:57:55;;;;;;;17.53;7.70;;;5.10;99.90;;;;;;5057243;28;20191;-80
2022/01/23 07:00:21;;;;;;;17.20;7.93;;;5.10;99.90;;;;;;5056845;28;20559;-80
2022/01/23 07:02:47;;;;;;;14.87;7.87;;;5.10;99.90;;;;;;5056792;28;20169;-80
2022/01/23 07:05:12;;;;;;;16.67;7.70;;;5.10;99.90;;;;;;5057529;28;20189;-80
2022/01/23 07:07:38;;;;;;;17.00;8.47;;;5.00;99.90;;;;;;5058335;28;20180;-79
2022/01/23 07:10:04;;;;;;;13.13;7.67;;;5.00;99.90;;;;;;5057082;28;20223;-80
2022/01/23 07:12:30;;;;;;;14.90;8.23;;;5.00;99.90;;;;;;5059264;28;20180;-79
2022/01/23 07:14:56;;;;;;;18.17;8.37;;;5.00;99.90;;;;;;5054472;28;20175;-82
2022/01/23 07:17:21;;;;;;;14.67;8.00;;;5.00;99.90;;;;;;5053350;28;20201;-83
2022/01/23 07:19:48;;;;;;;14.80;7.77;;;5.00;99.90;;;;;;5053505;28;20182;-81
2022/01/23 07:22:14;;;;;;;16.87;8.33;;;4.90;99.90;;;;;;5052830;28;20179;-81
2022/01/23 07:24:40;;;;;;;12.87;7.80;;;4.90;99.90;;;;;;5052702;28;20170;-81
2022/01/23 07:27:14;;;;;;;14.07;7.57;;;4.90;99.90;;;;;;5052603;28;20225;-81
2022/01/23 07:29:42;;;;;;;13.27;7.77;;;4.80;99.90;;;;;;5053176;28;20237;-81
2022/01/23 07:32:09;;;;;;;12.47;8.03;;;4.80;99.90;;;;;;5051832;28;20177;-81
2022/01/23 07:34:35;;;;;;;14.60;8.13;;;4.80;99.90;;;;;;5052452;28;20179;-81
2022/01/23 07:37:01;;;;;;;15.73;8.30;;;4.80;99.90;;;;;;5052171;28;20373;-81
2022/01/23 07:39:26;;;;;;;15.03;8.13;;;4.80;99.90;;;;;;5052137;28;20177;-82
2022/01/23 07:41:52;;;;;;;16.57;7.83;;;4.80;99.90;;;;;;5052410;28;20174;-82
2022/01/23 07:44:18;;;;;;;19.37;7.93;;;4.80;99.90;;;;;;5052738;28;20167;-82
2022/01/23 07:46:44;;;;;;;15.97;9.03;;;4.80;99.90;;;;;;5052448;28;20193;-82
2022/01/23 07:49:10;;;;;;;18.00;8.47;;;4.90;99.90;;;;;;5052546;28;20622;-83
2022/01/23 07:51:36;;;;;;;17.93;9.33;;;5.00;99.90;;;;;;5051897;28;20170;-82
2022/01/23 07:54:03;;;;;;;16.33;9.17;;;4.90;99.90;;;;;;5051856;28;20176;-83
2022/01/23 07:56:28;;;;;;;19.30;9.27;;;4.90;99.90;;;;;;5053084;28;20192;-82
2022/01/23 07:58:54;;;;;;;18.40;9.27;;;5.00;99.90;;;;;;5052013;28;20249;-82
2022/01/23 08:01:20;;;;;;;19.00;9.07;;;4.90;99.90;;;;;;5051802;28;20170;-81
2022/01/23 08:03:45;;;;;;;17.90;9.17;;;5.00;99.90;;;;;;5051758;28;20169;-83
2022/01/23 08:06:12;;;;;;;23.13;9.50;;;5.00;99.90;;;;;;5051701;28;20809;-82
2022/01/23 08:08:38;;;;;;;18.73;9.23;;;5.00;99.90;;;;;;5051664;28;20689;-82
2022/01/23 08:11:04;;;;;;;18.43;10.03;;;5.10;99.90;;;;;;5051767;28;20181;-82
2022/01/23 08:13:30;;;;;;;20.30;10.07;;;5.20;99.90;;;;;;5051910;28;20196;-82
2022/01/23 08:15:56;;;;;;;20.00;9.90;;;5.10;99.90;;;;;;5051643;28;20662;-82
2022/01/23 08:18:21;;;;;;;20.40;10.60;;;5.10;99.90;;;;;;5051883;28;20177;-82
2022/01/23 08:20:47;;;;;;;22.00;10.17;;;5.10;99.90;;;;;;5051489;28;20261;-82
2022/01/23 08:23:13;;;;;;;22.17;10.50;;;5.10;99.90;;;;;;5051217;28;20181;-82
2022/01/23 08:25:39;;;;;;;17.67;9.27;;;5.20;99.90;;;;;;5051593;28;20535;-82
2022/01/23 08:28:07;;;;;;;16.87;9.67;;;5.20;99.90;;;;;;5050930;28;20666;-82
2022/01/23 08:30:33;;;;;;;18.60;9.27;;;5.20;99.90;;;;;;5052038;28;20183;-82
2022/01/23 08:32:59;;;;;;;16.53;9.33;;;5.20;99.90;;;;;;5051682;28;20204;-82
2022/01/23 08:35:26;;;;;;;15.27;8.60;;;5.20;99.90;;;;;;5051822;28;20236;-82
2022/01/23 08:37:52;;;;;;;16.77;8.20;;;5.40;99.90;;;;;;5052862;28;20173;-81
2022/01/23 08:43:11;;;;;;;14.87;8.53;;;5.60;99.90;;;;;;5036192;28;20196;-82
2022/01/23 08:45:38;;;;;;;17.47;8.70;;;5.60;99.90;;;;;;5051704;28;20200;-82
2022/01/23 08:48:04;;;;;;;12.43;8.03;;;5.70;99.90;;;;;;5051752;28;20212;-82
2022/01/23 08:50:30;;;;;;;11.70;7.83;;;5.80;99.90;;;;;;5051738;28;20534;-82
2022/01/23 08:52:55;;;;;;;14.70;7.57;;;5.80;99.90;;;;;;5051315;28;20260;-82
2022/01/23 08:55:21;;;;;;;11.57;8.00;;;5.90;99.90;;;;;;5051580;28;20189;-82
2022/01/23 08:57:47;;;;;;;15.83;8.13;;;6.00;99.90;;;;;;5051304;28;20267;-82
2022/01/23 09:00:14;;;;;;;14.23;7.87;;;6.00;99.90;;;;;;5056569;28;20702;-80
2022/01/23 09:02:40;;;;;;;12.90;8.30;;;6.10;99.90;;;;;;5058744;28;20230;-80
2022/01/23 09:05:06;;;;;;;10.43;7.83;;;6.20;99.90;;;;;;5058717;28;20192;-80
2022/01/23 09:07:32;;;;;;;16.20;8.10;;;6.20;99.90;;;;;;5058160;28;20190;-80
2022/01/23 09:10:03;;;;;;;16.07;7.77;;;6.30;99.90;;;;;;5059311;28;20235;-80
2022/01/23 09:14:55;;;;;;;14.70;7.73;;;6.50;99.90;;;;;;5059869;28;20238;-80
2022/01/23 09:17:21;;;;;;;13.00;7.47;;;6.50;99.90;;;;;;5058531;28;20242;-80
2022/01/23 09:19:47;;;;;;;13.57;7.83;;;6.70;99.90;;;;;;5058852;28;20694;-80
2022/01/23 09:22:14;;;;;;;13.30;7.37;;;6.70;99.90;;;;;;5058664;28;20244;-80
2022/01/23 09:24:40;;;;;;;14.77;7.77;;;6.70;99.90;;;;;;5058428;28;20181;-80
2022/01/23 09:27:07;;;;;;;9.97;6.63;;;6.80;99.90;;;;;;5058562;28;20181;-80
2022/01/23 09:29:40;;;;;;;10.97;7.07;;;6.80;99.90;;;;;;5058859;28;20212;-80
2022/01/23 09:32:12;;;;;;;13.03;7.07;;;6.80;99.90;;;;;;5059053;28;20170;-80
2022/01/23 09:34:39;;;;;;;11.83;6.70;;;6.80;99.90;;;;;;5058350;28;20202;-80
2022/01/23 09:37:07;;;;;;;11.37;6.40;;;6.90;99.90;;;;;;5058249;28;20175;-80
2022/01/23 09:39:34;;;;;;;12.23;7.37;;;6.80;99.90;;;;;;5058487;28;20186;-80
2022/01/23 09:42:04;;;;;;;14.37;7.90;;;6.90;99.90;;;;;;5058814;28;20177;-80
2022/01/23 09:44:36;;;;;;;12.33;7.57;;;6.90;99.90;;;;;;5060263;28;20178;-80
2022/01/23 09:47:02;;;;;;;15.03;7.50;;;7.00;99.90;;;;;;5058053;28;20173;-80
2022/01/23 09:49:30;;;;;;;12.80;7.43;;;7.00;99.90;;;;;;5058921;28;20267;-80
2022/01/23 09:51:59;;;;;;;11.93;6.27;;;6.90;99.90;;;;;;5060533;28;20169;-80
2022/01/23 09:54:29;;;;;;;11.97;7.53;;;6.90;99.90;;;;;;5060044;28;20221;-80
2022/01/23 09:57:03;;;;;;;11.60;7.17;;;6.90;99.90;;;;;;5061780;28;20194;-79
2022/01/23 09:59:29;;;;;;;13.57;7.50;;;6.90;99.90;;;;;;5063090;28;20190;-80
2022/01/23 10:01:56;;;;;;;10.73;6.73;;;7.00;99.90;;;;;;5062441;28;20174;-80
2022/01/23 10:04:24;;;;;;;12.33;6.50;;;7.00;99.90;;;;;;5062136;28;20175;-80
2022/01/23 10:06:50;;;;;;;14.27;6.90;;;7.00;99.90;;;;;;5061820;28;20185;-80
2022/01/23 10:09:17;;;;;;;12.57;6.63;;;6.90;99.90;;;;;;5063093;28;20658;-80
2022/01/23 10:11:44;;;;;;;11.70;6.03;;;7.00;99.90;;;;;;5061755;28;20174;-80
2022/01/23 10:14:10;;;;;;;15.37;7.17;;;7.10;99.90;;;;;;5062638;28;20177;-80
2022/01/23 10:16:36;;;;;;;9.23;5.70;;;7.20;99.90;;;;;;5062817;28;20187;-80
2022/01/23 10:19:03;;;;;;;9.87;5.97;;;7.20;99.90;;;;;;5061916;28;20171;-80
2022/01/23 10:21:33;;;;;;;9.20;5.70;;;7.20;99.90;;;;;;5062405;28;20177;-80
2022/01/23 10:23:59;;;;;;;10.03;5.77;;;7.30;99.90;;;;;;5063797;28;20192;-80
2022/01/23 10:26:53;;;;;;;11.13;5.83;;;7.40;99.90;;;;;;5062953;28;20202;-80
2022/01/23 10:29:19;;;;;;;10.57;5.87;;;7.40;99.90;;;;;;5063059;28;20198;-80
2022/01/23 10:32:03;;;;;;;10.97;5.77;;;7.40;99.90;;;;;;5063688;28;20281;-80
2022/01/23 10:34:43;;;;;;;7.60;5.13;;;7.50;99.90;;;;;;5062078;28;20178;-80
2022/01/23 10:37:10;;;;;;;8.27;5.07;;;7.50;99.90;;;;;;5060587;28;20197;-80
2022/01/23 10:39:47;;;;;;;9.00;5.37;;;7.50;99.90;;;;;;5060193;28;20254;-80
2022/01/23 10:42:54;;;;;;;5.87;4.20;;;7.60;99.90;;;;;;5060910;28;20176;-80
2022/01/23 10:51:29;;;;;;;8.30;3.90;;;7.60;99.90;;;;;;5061404;28;20197;-80
2022/01/23 10:54:16;;;;;;;6.43;3.90;;;7.50;99.90;;;;;;5059784;28;20635;-80
2022/01/23 10:57:07;;;;;;;3.67;3.00;;;7.60;99.90;;;;;;5059666;28;20200;-80
2022/01/23 10:59:47;;;;;;;4.87;3.20;;;7.70;99.90;;;;;;5059823;28;20812;-80
2022/01/23 11:02:21;;;;;;;3.63;2.97;;;7.60;99.90;;;;;;5059822;28;20183;-80
2022/01/23 11:05:07;;;;;;;4.10;3.07;;;7.60;99.90;;;;;;5060559;28;20799;-80
2022/01/23 11:07:38;;;;;;;3.70;2.57;;;7.50;99.90;;;;;;5059374;28;20511;-80
2022/01/23 11:10:08;;;;;;;3.40;2.17;;;7.50;99.90;;;;;;5060508;28;20235;-80
2022/01/23 11:17:57;;;;;;;3.03;2.20;;;7.60;99.90;;;;;;5063223;28;20184;-80
2022/01/23 11:20:40;;;;;;;2.07;1.83;;;7.60;99.90;;;;;;5061182;28;20189;-80
2022/01/23 11:23:22;;;;;;;3.80;2.33;;;7.30;99.90;;;;;;5059268;28;20170;-80
2022/01/23 11:25:57;;;;;;;2.73;2.03;;;7.40;99.90;;;;;;5059751;28;20204;-80
2022/01/23 11:28:37;;;;;;;3.33;2.73;;;7.40;99.90;;;;;;5040577;28;20207;-80
2022/01/23 11:31:04;;;;;;;3.60;2.37;;;7.30;99.90;;;;;;5039593;28;20180;-80
2022/01/23 11:33:31;;;;;;;2.63;2.10;;;7.40;99.90;;;;;;5040005;28;20177;-81
2022/01/23 11:35:56;;;;;;;2.20;1.87;;;7.30;99.90;;;;;;5037822;28;20191;-81
2022/01/23 11:38:24;;;;;;;1.90;1.80;;;7.40;99.90;;;;;;5055535;28;20674;-80
2022/01/23 11:54:45;;;;;;;3.07;1.40;;;7.40;99.90;;;;;;5065492;28;20169;-81
2022/01/23 11:57:33;;;;;;;2.47;1.20;;;7.40;99.90;;;;;;5065255;28;20173;-80
2022/01/23 12:00:01;;;;;;;1.37;1.27;;;7.50;99.90;;;;;;5065243;28;20190;-80
2022/01/23 12:02:33;;;;;;;1.40;1.30;;;7.60;99.90;;;;;;5070710;28;20180;-81
2022/01/23 12:05:12;;;;;;;1.73;1.23;;;7.50;99.90;;;;;;5059233;28;20224;-81
2022/01/23 12:07:41;;;;;;;1.00;1.00;;;7.50;99.90;;;;;;5059489;28;20169;-80
2022/01/23 12:10:29;;;;;;;1.07;1.07;;;7.50;99.90;;;;;;5061714;28;20209;-80
2022/01/23 12:13:54;;;;;;;1.00;1.00;;;7.50;99.90;;;;;;5060192;28;20203;-80
2022/01/23 12:16:32;;;;;;;0.83;0.83;;;7.50;99.90;;;;;;5058456;28;20258;-82
2022/01/23 12:19:20;;;;;;;2.23;1.40;;;7.50;99.90;;;;;;5052235;28;20172;-83
2022/01/23 12:21:47;;;;;;;1.00;0.90;;;7.50;99.90;;;;;;5051668;28;20173;-82
2022/01/23 12:24:16;;;;;;;1.00;1.00;;;7.40;99.90;;;;;;5052436;28;20174;-83
2022/01/23 12:26:46;;;;;;;1.13;1.13;;;7.40;99.90;;;;;;5052090;28;20233;-82
2022/01/23 12:29:13;;;;;;;1.23;1.13;;;7.30;99.90;;;;;;5051808;28;20254;-82
2022/01/23 12:31:40;;;;;;;1.23;1.03;;;7.30;99.90;;;;;;5051480;28;20348;-82
2022/01/23 12:34:06;;;;;;;1.17;1.10;;;7.30;99.90;;;;;;5051631;28;20281;-82
2022/01/23 12:36:34;;;;;;;1.40;1.30;;;7.40;99.90;;;;;;5050380;28;20189;-84
2022/01/23 12:39:08;;;;;;;1.83;1.20;;;7.40;99.90;;;;;;5050917;28;20167;-82
2022/01/23 12:41:38;;;;;;;0.90;0.90;;;7.30;99.90;;;;;;5051134;28;20267;-83
2022/01/23 12:44:05;;;;;;;1.40;1.30;;;7.30;99.90;;;;;;5051994;28;20170;-82
2022/01/23 12:46:47;;;;;;;1.23;1.10;;;7.30;99.90;;;;;;5051984;28;20604;-82
2022/01/23 12:49:24;;;;;;;1.20;1.20;;;7.30;99.90;;;;;;5054545;28;20228;-81
2022/01/23 12:52:09;;;;;;;1.20;1.10;;;7.40;99.90;;;;;;5051409;28;20231;-82
2022/01/23 12:55:04;;;;;;;1.20;1.10;;;7.30;99.90;;;;;;5051299;28;20652;-82
2022/01/23 12:57:36;;;;;;;1.03;0.93;;;7.30;99.90;;;;;;5042937;28;20187;-82
2022/01/23 13:00:09;;;;;;;1.37;1.10;;;7.30;99.90;;;;;;5053737;28;20193;-82
2022/01/23 13:02:43;;;;;;;1.70;1.13;;;7.30;99.90;;;;;;5052696;28;20169;-82
2022/01/23 13:05:10;;;;;;;2.07;1.23;;;7.30;99.90;;;;;;5050561;28;20616;-77
2022/01/23 13:07:51;;;;;;;1.20;1.20;;;7.30;99.90;;;;;;5055776;28;20666;-79
2022/01/23 13:10:29;;;;;;;3.47;1.20;;;7.20;99.90;;;;;;5057196;28;20200;-80
2022/01/23 13:30:00;;;;;;;0.97;0.97;;;7.20;99.90;;;;;;5016023;28;20644;-78
2022/01/23 13:35:05;;;;;;;1.40;1.30;;;7.30;99.90;;;;;;5056023;28;20181;-78
2022/01/23 13:37:35;;;;;;;1.47;1.30;;;7.30;99.90;;;;;;5054318;28;20184;-78
2022/01/23 13:40:08;;;;;;;1.23;1.23;;;7.20;99.90;;;;;;5060154;28;20175;-80
2022/01/23 13:59:37;;;;;;;3.83;1.40;;;7.10;99.90;;;;;;5055440;28;20277;-78
2022/01/23 14:04:41;;;;;;;1.93;1.60;;;7.20;99.90;;;;;;5037414;28;20675;-79
2022/01/23 14:07:07;;;;;;;1.90;1.57;;;7.20;99.90;;;;;;5043465;28;20180;-78
2022/01/23 14:09:38;;;;;;;3.43;1.90;;;7.20;99.90;;;;;;5056460;28;20194;-79
2022/01/23 14:12:11;;;;;;;4.60;1.90;;;7.20;99.90;;;;;;5056875;28;20188;-79
2022/01/23 14:14:54;;;;;;;2.63;1.67;;;7.20;99.90;;;;;;5055483;28;20176;-79
2022/01/23 14:17:20;;;;;;;2.20;1.60;;;7.20;99.90;;;;;;5049181;28;20184;-79
2022/01/23 14:20:02;;;;;;;4.90;1.97;;;7.20;99.90;;;;;;5055311;28;20215;-79
2022/01/23 14:22:29;;;;;;;3.10;2.20;;;7.20;99.90;;;;;;5055377;28;20175;-79
2022/01/23 14:25:07;;;;;;;3.97;2.13;;;7.20;99.90;;;;;;5056595;28;20238;-79
2022/01/23 14:27:32;;;;;;;2.47;2.20;;;7.20;99.90;;;;;;5056743;28;20235;-79
2022/01/23 14:30:01;;;;;;;4.73;2.23;;;7.20;99.90;;;;;;5057175;28;20592;-79
2022/01/23 14:32:35;;;;;;;5.73;2.50;;;7.10;99.90;;;;;;5056806;28;20540;-79
2022/01/23 14:35:11;;;;;;;2.63;2.20;;;7.10;99.90;;;;;;5062533;28;20200;-79
2022/01/23 14:37:37;;;;;;;3.47;2.40;;;7.10;99.90;;;;;;5067402;28;20229;-79
2022/01/23 14:40:10;;;;;;;6.07;2.37;;;7.10;99.90;;;;;;5061850;28;20177;-79
2022/01/23 14:42:36;;;;;;;5.23;2.30;;;7.10;99.90;;;;;;5054250;28;20170;-78
2022/01/23 14:45:09;;;;;;;3.47;2.23;;;7.10;99.90;;;;;;5051118;28;20254;-75
2022/01/23 14:47:39;;;;;;;3.47;2.43;;;7.10;99.90;;;;;;5052969;28;20233;-77
2022/01/23 14:50:11;;;;;;;3.83;2.40;;;7.00;99.90;;;;;;5052906;28;20763;-77
2022/01/23 14:52:40;;;;;;;4.47;2.23;;;7.10;99.90;;;;;;5052688;28;20630;-76
2022/01/23 14:55:07;;;;;;;3.53;2.00;;;7.00;99.90;;;;;;5052945;28;20215;-78
2022/01/23 14:57:34;;;;;;;6.47;2.50;;;7.10;99.90;;;;;;5052505;28;20175;-77
2022/01/23 15:00:01;;;;;;;3.77;2.43;;;7.10;99.90;;;;;;5052322;28;20193;-77
2022/01/23 15:02:26;;;;;;;2.30;1.97;;;7.00;99.90;;;;;;5052457;28;20264;-77
2022/01/23 15:04:52;;;;;;;3.93;2.30;;;7.00;99.90;;;;;;5052557;28;20618;-77
2022/01/23 15:07:18;;;;;;;4.03;2.20;;;7.00;99.90;;;;;;5052719;28;20196;-77
2022/01/23 15:09:48;;;;;;;4.87;2.80;;;7.00;99.90;;;;;;5052130;28;20541;-77
2022/01/23 15:12:17;;;;;;;2.33;2.13;;;6.90;99.90;;;;;;5052115;28;20176;-77
2022/01/23 15:14:43;;;;;;;4.63;2.80;;;6.90;99.90;;;;;;5052031;28;20256;-77
2022/01/23 15:17:09;;;;;;;5.30;2.80;;;6.90;99.90;;;;;;5052239;28;20170;-78
2022/01/23 15:19:35;;;;;;;6.70;3.10;;;6.90;99.90;;;;;;5051425;28;20186;-78
2022/01/23 15:22:01;;;;;;;7.90;3.57;;;6.80;99.90;;;;;;5051684;28;20640;-78
2022/01/23 15:24:28;;;;;;;3.93;2.63;;;6.90;99.90;;;;;;5052259;28;20170;-78
2022/01/23 15:26:53;;;;;;;2.10;1.90;;;6.80;99.90;;;;;;5051786;28;20680;-78
2022/01/23 15:29:19;;;;;;;3.10;2.40;;;6.80;99.90;;;;;;5052176;28;20235;-78
2022/01/23 15:31:47;;;;;;;2.40;1.70;;;6.90;99.90;;;;;;5051836;28;20195;-77
2022/01/23 15:34:15;;;;;;;3.10;1.97;;;6.80;99.90;;;;;;5052286;28;20170;-78
2022/01/23 15:36:41;;;;;;;4.23;3.30;;;6.70;99.90;;;;;;5051816;28;20193;-78
2022/01/23 15:39:07;;;;;;;3.83;2.63;;;6.70;99.90;;;;;;5052010;28;20174;-78
2022/01/23 15:41:34;;;;;;;6.43;3.37;;;6.80;99.90;;;;;;5051270;28;20177;-78
2022/01/23 15:43:59;;;;;;;7.70;3.60;;;6.80;99.90;;;;;;5052525;28;20279;-78
2022/01/23 15:46:25;;;;;;;7.77;4.40;;;6.70;99.90;;;;;;5051646;28;20675;-78
2022/01/23 15:48:51;;;;;;;7.30;4.57;;;6.70;99.90;;;;;;5051817;28;20224;-78
2022/01/23 15:51:17;;;;;;;9.00;4.60;;;6.70;99.90;;;;;;5052078;28;20171;-78
2022/01/23 15:53:42;;;;;;;7.00;3.87;;;6.70;99.90;;;;;;5052900;28;20690;-78
2022/01/23 15:56:08;;;;;;;6.40;3.90;;;6.70;99.90;;;;;;5051095;28;20232;-78
2022/01/23 15:58:34;;;;;;;7.40;4.00;;;6.70;99.90;;;;;;5051669;28;20522;-79
2022/01/23 16:01:00;;;;;;;8.13;4.20;;;6.60;99.90;;;;;;5051498;28;20190;-78
2022/01/23 16:03:27;;;;;;;8.20;4.03;;;6.60;99.90;;;;;;5050666;28;20261;-78
2022/01/23 16:05:54;;;;;;;7.17;3.80;;;6.60;99.90;;;;;;5051202;28;20705;-78
2022/01/23 16:08:20;;;;;;;7.80;3.73;;;6.60;99.90;;;;;;5050998;28;20271;-78
2022/01/23 16:10:46;;;;;;;8.40;4.23;;;6.60;99.90;;;;;;5051359;28;20180;-78
2022/01/23 16:13:12;;;;;;;6.67;3.67;;;6.60;99.90;;;;;;5051102;28;20173;-78
2022/01/23 16:15:38;;;;;;;9.63;3.93;;;6.60;99.90;;;;;;5050891;28;20570;-78
2022/01/23 16:18:03;;;;;;;5.37;3.30;;;6.50;99.90;;;;;;5051174;28;20175;-78
2022/01/23 16:20:29;;;;;;;6.00;3.67;;;6.60;99.90;;;;;;5051085;28;20176;-78
2022/01/23 16:22:55;;;;;;;8.33;3.77;;;6.50;99.90;;;;;;5050749;28;20702;-78
2022/01/23 16:25:22;;;;;;;5.17;2.57;;;6.50;99.90;;;;;;5050784;28;20229;-78
2022/01/23 16:27:49;;;;;;;5.80;2.67;;;6.50;99.90;;;;;;5051140;28;20177;-78
2022/01/23 16:30:18;;;;;;;4.37;2.60;;;6.50;99.90;;;;;;5034135;28;21104;-78